Time,TemperatureF,DewpointF,PressureIn,WindDirection,WindDirectionDegrees,WindSpeedMPH,WindSpeedGustMPH,Humidity,HourlyPrecipIn,Conditions,Clouds,dailyrainin,SoftwareType,DateUTC
2013-12-18 00:06:00,43.5,34.4,29.78,North,0,4.2,-999.0,70,-99.99,,,0.00,Acu-Link.com,2013-12-18 05:06:00,
2013-12-18 00:22:00,43.2,34.1,29.78,WNW,292,5.3,-999.0,70,-99.99,,,0.00,Acu-Link.com,2013-12-18 05:22:00,
2013-12-18 00:37:00,42.8,34.1,29.78,North,0,4.7,-999.0,71,-99.99,,,0.00,Acu-Link.com,2013-12-18 05:37:00,
2013-12-18 00:52:00,42.1,33.4,29.79,NNW,337,3.2,-999.0,71,-99.99,,,0.00,Acu-Link.com,2013-12-18 05:52:00,
2013-12-18 01:07:00,43.3,34.5,29.80,North,0,4.2,-999.0,71,-99.99,,,0.00,Acu-Link.com,2013-12-18 06:07:00,
2013-12-18 01:22:00,41.7,32.3,29.80,West,270,5.3,-999.0,69,-99.99,,,0.00,Acu-Link.com,2013-12-18 06:22:00,
2013-12-18 01:37:00,41.5,30.6,29.80,West,270,8.3,-999.0,65,-99.99,,,0.00,Acu-Link.com,2013-12-18 06:37:00,
2013-12-18 01:52:00,41.4,29.8,29.80,WNW,292,8.9,-999.0,63,-99.99,,,0.00,Acu-Link.com,2013-12-18 06:52:00,
2013-12-18 02:07:00,40.5,28.9,29.81,WSW,247,4.7,-999.0,63,-99.99,,,0.00,Acu-Link.com,2013-12-18 07:07:00,
2013-12-18 02:23:00,40.1,28.5,29.82,North,0,3.2,-999.0,63,-99.99,,,0.00,Acu-Link.com,2013-12-18 07:23:00,
2013-12-18 02:38:00,38.5,27.8,29.84,North,0,0.0,-999.0,65,-99.99,,,0.00,Acu-Link.com,2013-12-18 07:38:00,
2013-12-18 02:53:00,37.6,27.7,29.84,North,0,0.0,-999.0,67,-99.99,,,0.00,Acu-Link.com,2013-12-18 07:53:00,
2013-12-18 03:08:00,37.2,27.3,29.84,NNW,337,1.7,-999.0,67,-99.99,,,0.00,Acu-Link.com,2013-12-18 08:08:00,
2013-12-18 03:24:00,35.8,26.3,29.84,NNW,337,1.1,-999.0,68,-99.99,,,0.00,Acu-Link.com,2013-12-18 08:24:00,
2013-12-18 03:39:00,35.6,26.8,29.85,NNW,337,0.0,-999.0,70,-99.99,,,0.00,Acu-Link.com,2013-12-18 08:39:00,
2013-12-18 03:54:00,34.7,26.3,29.86,NNW,337,0.0,-999.0,71,-99.99,,,0.00,Acu-Link.com,2013-12-18 08:54:00,
2013-12-18 04:10:00,33.8,26.1,29.86,NNW,337,0.0,-999.0,73,-99.99,,,0.00,Acu-Link.com,2013-12-18 09:10:00,
2013-12-18 04:25:00,32.9,25.5,29.87,NNW,337,0.0,-999.0,74,-99.99,,,0.00,Acu-Link.com,2013-12-18 09:25:00,
2013-12-18 04:40:00,32.5,25.5,29.87,NNW,337,1.7,-999.0,75,-99.99,,,0.00,Acu-Link.com,2013-12-18 09:40:00,
2013-12-18 04:55:00,32.9,25.5,29.87,NNW,337,0.0,-999.0,74,-99.99,,,0.00,Acu-Link.com,2013-12-18 09:55:00,
2013-12-18 05:11:00,32.2,25.8,29.88,NNW,337,1.1,-999.0,77,-99.99,,,0.00,Acu-Link.com,2013-12-18 10:11:00,
2013-12-18 05:26:00,33.1,26.1,29.88,NNW,337,2.2,-999.0,75,-99.99,,,0.00,Acu-Link.com,2013-12-18 10:26:00,
2013-12-18 05:41:00,33.1,25.7,29.89,NNW,337,2.2,-999.0,74,-99.99,,,0.00,Acu-Link.com,2013-12-18 10:41:00,
2013-12-18 05:57:00,33.3,25.6,29.90,NNW,337,1.1,-999.0,73,-99.99,,,0.00,Acu-Link.com,2013-12-18 10:57:00,
2013-12-18 06:12:00,33.3,25.3,29.91,NNW,337,0.0,-999.0,72,-99.99,,,0.00,Acu-Link.com,2013-12-18 11:12:00,
2013-12-18 06:27:00,33.1,25.1,29.91,NNW,337,1.1,-999.0,72,-99.99,,,0.00,Acu-Link.com,2013-12-18 11:27:00,
2013-12-18 06:42:00,32.2,24.9,29.92,NNW,337,0.0,-999.0,74,-99.99,,,0.00,Acu-Link.com,2013-12-18 11:42:00,
2013-12-18 06:58:00,31.6,24.9,29.92,NNW,337,1.7,-999.0,76,-99.99,,,0.00,Acu-Link.com,2013-12-18 11:58:00,
2013-12-18 07:13:00,31.8,25.1,29.93,NNW,337,1.7,-999.0,76,-99.99,,,0.00,Acu-Link.com,2013-12-18 12:13:00,
2013-12-18 07:28:00,31.6,24.6,29.94,NNW,337,0.0,-999.0,75,-99.99,,,0.00,Acu-Link.com,2013-12-18 12:28:00,
2013-12-18 07:43:00,30.9,24.2,29.94,NNW,337,0.0,-999.0,76,-99.99,,,0.00,Acu-Link.com,2013-12-18 12:43:00,
2013-12-18 07:59:00,30.2,24.2,29.95,NNW,337,0.0,-999.0,78,-99.99,,,0.00,Acu-Link.com,2013-12-18 12:59:00,
2013-12-18 08:14:00,33.1,26.7,29.96,NNW,337,0.0,-999.0,77,-99.99,,,0.00,Acu-Link.com,2013-12-18 13:14:00,
2013-12-18 08:29:00,37.2,29.4,29.97,NNW,337,1.1,-999.0,73,-99.99,,,0.00,Acu-Link.com,2013-12-18 13:29:00,
2013-12-18 08:44:00,38.8,28.4,29.98,NNW,337,0.0,-999.0,66,-99.99,,,0.00,Acu-Link.com,2013-12-18 13:44:00,
2013-12-18 09:00:00,39.4,28.6,29.98,NNW,337,2.2,-999.0,65,-99.99,,,0.00,Acu-Link.com,2013-12-18 14:00:00,
2013-12-18 09:15:00,39.4,27.9,29.99,NNE,22,4.7,-999.0,63,-99.99,,,0.00,Acu-Link.com,2013-12-18 14:15:00,
2013-12-18 09:30:00,39.9,28.0,29.99,ENE,67,5.3,-999.0,62,-99.99,,,0.00,Acu-Link.com,2013-12-18 14:30:00,
2013-12-18 09:45:00,40.6,27.8,29.99,SW,225,3.2,-999.0,60,-99.99,,,0.00,Acu-Link.com,2013-12-18 14:45:00,
2013-12-18 10:01:00,41.0,27.4,29.99,North,0,2.2,-999.0,58,-99.99,,,0.00,Acu-Link.com,2013-12-18 15:01:00,
2013-12-18 10:16:00,44.4,30.6,30.00,ESE,112,3.2,-999.0,58,-99.99,,,0.00,Acu-Link.com,2013-12-18 15:16:00,
2013-12-18 10:31:00,43.9,28.8,30.00,WNW,292,3.7,-999.0,55,-99.99,,,0.00,Acu-Link.com,2013-12-18 15:31:00,
2013-12-18 10:46:00,44.4,28.4,29.99,North,0,2.2,-999.0,53,-99.99,,,0.00,Acu-Link.com,2013-12-18 15:46:00,
2013-12-18 11:01:00,44.8,27.8,29.99,North,0,1.7,-999.0,51,-99.99,,,0.00,Acu-Link.com,2013-12-18 16:01:00,
2013-12-18 11:17:00,45.7,29.1,29.99,NNW,337,1.7,-999.0,52,-99.99,,,0.00,Acu-Link.com,2013-12-18 16:17:00,
2013-12-18 11:32:00,46.0,28.9,29.98,North,0,3.2,-999.0,51,-99.99,,,0.00,Acu-Link.com,2013-12-18 16:32:00,
2013-12-18 11:47:00,45.5,27.0,29.98,West,270,4.7,-999.0,48,-99.99,,,0.00,Acu-Link.com,2013-12-18 16:47:00,
2013-12-18 12:03:00,48.2,29.4,29.97,ESE,112,8.3,-999.0,48,-99.99,,,0.00,Acu-Link.com,2013-12-18 17:03:00,
2013-12-18 12:18:00,47.8,28.6,29.97,NNW,337,4.2,-999.0,47,-99.99,,,0.00,Acu-Link.com,2013-12-18 17:18:00,
2013-12-18 12:33:00,47.5,27.8,29.96,WNW,292,3.7,-999.0,46,-99.99,,,0.00,Acu-Link.com,2013-12-18 17:33:00,
2013-12-18 12:48:00,47.3,27.0,29.96,NW,315,6.8,-999.0,45,-99.99,,,0.00,Acu-Link.com,2013-12-18 17:48:00,
2013-12-18 13:03:00,48.4,28.0,29.95,NNW,337,6.3,-999.0,45,-99.99,,,0.00,Acu-Link.com,2013-12-18 18:03:00,
2013-12-18 13:18:00,48.6,27.7,29.95,West,270,7.8,-999.0,44,-99.99,,,0.00,Acu-Link.com,2013-12-18 18:18:00,
2013-12-18 13:33:00,48.6,27.1,29.95,West,270,10.9,-999.0,43,-99.99,,,0.00,Acu-Link.com,2013-12-18 18:33:00,
2013-12-18 13:49:00,48.7,26.6,29.94,WSW,247,6.8,-999.0,42,-99.99,,,0.00,Acu-Link.com,2013-12-18 18:49:00,
2013-12-18 14:04:00,48.7,26.1,29.93,NNE,22,4.7,-999.0,41,-99.99,,,0.00,Acu-Link.com,2013-12-18 19:04:00,
2013-12-18 14:19:00,48.6,26.0,29.93,West,270,3.2,-999.0,41,-99.99,,,0.00,Acu-Link.com,2013-12-18 19:19:00,
2013-12-18 14:34:00,49.1,27.0,29.93,West,270,4.2,-999.0,42,-99.99,,,0.00,Acu-Link.com,2013-12-18 19:34:00,
2013-12-18 14:50:00,49.3,26.6,29.93,West,270,3.7,-999.0,41,-99.99,,,0.00,Acu-Link.com,2013-12-18 19:50:00,
2013-12-18 15:05:00,49.1,25.8,29.94,SW,225,2.7,-999.0,40,-99.99,,,0.00,Acu-Link.com,2013-12-18 20:05:00,
2013-12-18 15:20:00,48.9,25.0,29.95,NW,315,4.2,-999.0,39,-99.99,,,0.00,Acu-Link.com,2013-12-18 20:20:00,
2013-12-18 15:36:00,49.1,25.2,29.94,North,0,2.2,-999.0,39,-99.99,,,0.00,Acu-Link.com,2013-12-18 20:36:00,
2013-12-18 15:51:00,48.6,25.4,29.94,WSW,247,4.7,-999.0,40,-99.99,,,0.00,Acu-Link.com,2013-12-18 20:51:00,
2013-12-18 16:06:00,48.2,25.0,29.94,West,270,4.2,-999.0,40,-99.99,,,0.00,Acu-Link.com,2013-12-18 21:06:00,
2013-12-18 16:22:00,47.7,25.2,29.95,West,270,2.2,-999.0,41,-99.99,,,0.00,Acu-Link.com,2013-12-18 21:22:00,
2013-12-18 16:37:00,46.9,25.0,29.95,NNW,337,1.1,-999.0,42,-99.99,,,0.00,Acu-Link.com,2013-12-18 21:37:00,
2013-12-18 16:52:00,45.9,24.7,29.95,North,0,1.1,-999.0,43,-99.99,,,0.00,Acu-Link.com,2013-12-18 21:52:00,
2013-12-18 17:08:00,44.8,23.1,29.95,North,0,0.0,-999.0,42,-99.99,,,0.00,Acu-Link.com,2013-12-18 22:08:00,
2013-12-18 17:23:00,42.3,25.0,29.96,North,0,0.0,-999.0,50,-99.99,,,0.00,Acu-Link.com,2013-12-18 22:23:00,
2013-12-18 17:38:00,40.6,24.4,29.96,North,0,0.0,-999.0,52,-99.99,,,0.00,Acu-Link.com,2013-12-18 22:38:00,
2013-12-18 17:53:00,39.2,25.3,29.96,North,0,0.0,-999.0,57,-99.99,,,0.00,Acu-Link.com,2013-12-18 22:53:00,
2013-12-18 18:09:00,37.8,25.2,29.96,North,0,0.0,-999.0,60,-99.99,,,0.00,Acu-Link.com,2013-12-18 23:09:00,
2013-12-18 18:24:00,37.2,24.6,29.97,North,0,0.0,-999.0,60,-99.99,,,0.00,Acu-Link.com,2013-12-18 23:24:00,
2013-12-18 18:39:00,36.0,23.9,29.97,North,0,0.0,-999.0,61,-99.99,,,0.00,Acu-Link.com,2013-12-18 23:39:00,
2013-12-18 18:54:00,35.6,25.7,29.97,North,0,0.0,-999.0,67,-99.99,,,0.00,Acu-Link.com,2013-12-18 23:54:00,
2013-12-18 19:10:00,34.5,25.4,29.97,North,0,0.0,-999.0,69,-99.99,,,0.00,Acu-Link.com,2013-12-19 00:10:00,
2013-12-18 19:25:00,34.2,25.1,29.97,North,0,0.0,-999.0,69,-99.99,,,0.00,Acu-Link.com,2013-12-19 00:25:00,
2013-12-18 19:40:00,33.6,25.9,29.97,North,0,0.0,-999.0,73,-99.99,,,0.00,Acu-Link.com,2013-12-19 00:40:00,
2013-12-18 19:55:00,32.9,26.2,29.98,North,0,0.0,-999.0,76,-99.99,,,0.00,Acu-Link.com,2013-12-19 00:55:00,
2013-12-18 20:10:00,32.4,26.6,29.98,North,0,0.0,-999.0,79,-99.99,,,0.00,Acu-Link.com,2013-12-19 01:10:00,
2013-12-18 20:26:00,31.8,27.2,29.97,North,0,0.0,-999.0,83,-99.99,,,0.00,Acu-Link.com,2013-12-19 01:26:00,
2013-12-18 20:41:00,31.1,26.6,29.98,North,0,0.0,-999.0,83,-99.99,,,0.00,Acu-Link.com,2013-12-19 01:41:00,
2013-12-18 20:56:00,30.6,26.6,29.98,North,0,0.0,-999.0,85,-99.99,,,0.00,Acu-Link.com,2013-12-19 01:56:00,
2013-12-18 21:11:00,30.2,26.8,29.98,North,0,0.0,-999.0,87,-99.99,,,0.00,Acu-Link.com,2013-12-19 02:11:00,
2013-12-18 21:26:00,30.2,26.5,29.98,North,0,0.0,-999.0,86,-99.99,,,0.00,Acu-Link.com,2013-12-19 02:26:00,
2013-12-18 21:41:00,30.7,26.4,29.99,North,0,0.0,-999.0,84,-99.99,,,0.00,Acu-Link.com,2013-12-19 02:41:00,
2013-12-18 21:57:00,30.7,26.4,30.00,North,0,0.0,-999.0,84,-99.99,,,0.00,Acu-Link.com,2013-12-19 02:57:00,
2013-12-18 22:12:00,30.6,26.4,30.00,North,0,0.0,-999.0,84,-99.99,,,0.00,Acu-Link.com,2013-12-19 03:12:00,
2013-12-18 22:27:00,30.0,26.0,30.00,North,0,0.0,-999.0,85,-99.99,,,0.00,Acu-Link.com,2013-12-19 03:27:00,
2013-12-18 22:43:00,29.5,25.8,30.00,North,0,0.0,-999.0,86,-99.99,,,0.00,Acu-Link.com,2013-12-19 03:43:00,
2013-12-18 22:58:00,28.9,26.1,30.00,North,0,0.0,-999.0,89,-99.99,,,0.00,Acu-Link.com,2013-12-19 03:58:00,
2013-12-18 23:13:00,28.8,26.0,30.00,North,0,0.0,-999.0,89,-99.99,,,0.00,Acu-Link.com,2013-12-19 04:13:00,
2013-12-18 23:28:00,28.6,26.0,30.00,North,0,0.0,-999.0,90,-99.99,,,0.00,Acu-Link.com,2013-12-19 04:28:00,
2013-12-18 23:44:00,28.4,26.1,30.00,North,0,0.0,-999.0,91,-99.99,,,0.00,Acu-Link.com,2013-12-19 04:44:00,
2013-12-18 23:59:00,28.0,26.0,30.00,North,0,0.0,-999.0,92,-99.99,,,0.00,Acu-Link.com,2013-12-19 04:59:00,